createdAt,value
2022-12-08T00:01:07.044Z,4.80
2022-12-08T00:03:34.906Z,4.88
2022-12-08T00:06:21.962Z,5.10
2022-12-08T00:09:07.991Z,4.05
2022-12-08T00:11:35.272Z,4.70
2022-12-08T00:14:03.174Z,4.47
2022-12-08T00:16:30.352Z,4.75
2022-12-08T00:18:57.615Z,4.03
2022-12-08T00:21:24.663Z,3.95
2022-12-08T00:23:51.855Z,4.10
2022-12-08T00:26:18.908Z,5.22
2022-12-08T00:28:46.025Z,4.53
2022-12-08T00:31:13.682Z,4.25
2022-12-08T00:33:40.966Z,4.35
2022-12-08T00:36:12.620Z,3.95
2022-12-08T00:38:40.792Z,4.10
2022-12-08T00:41:09.697Z,4.15
2022-12-08T00:43:36.869Z,4.28
2022-12-08T00:46:04.370Z,4.45
2022-12-08T00:48:31.907Z,4.60
2022-12-08T00:50:59.134Z,4.50
2022-12-08T00:53:26.634Z,4.35
2022-12-08T00:55:53.883Z,4.85
2022-12-08T00:58:24.033Z,4.63
2022-12-08T01:00:53.681Z,4.07
2022-12-08T01:03:22.690Z,3.78
2022-12-08T01:05:50.113Z,3.90
2022-12-08T01:08:17.370Z,3.13
2022-12-08T01:10:44.940Z,4.30
2022-12-08T01:13:12.495Z,3.88
2022-12-08T01:15:39.629Z,4.10
2022-12-08T01:18:06.928Z,3.90
2022-12-08T01:20:34.386Z,3.78
2022-12-08T01:23:01.943Z,3.45
2022-12-08T01:25:29.144Z,3.78
2022-12-08T01:27:56.294Z,3.25
2022-12-08T01:30:23.826Z,3.92
2022-12-08T01:32:54.013Z,3.80
2022-12-08T01:35:21.329Z,4.22
2022-12-08T01:37:48.888Z,3.78
2022-12-08T01:40:16.797Z,3.90
2022-12-08T01:42:44.046Z,3.00
2022-12-08T01:45:23.759Z,2.65
2022-12-08T01:47:55.612Z,3.03
2022-12-08T01:50:23.162Z,2.83
2022-12-08T01:52:52.229Z,3.20
2022-12-08T01:55:25.684Z,2.85
2022-12-08T01:57:54.985Z,3.45
2022-12-08T02:00:25.209Z,2.65
2022-12-08T02:02:59.418Z,2.75
2022-12-08T02:05:28.740Z,3.13
2022-12-08T02:07:57.007Z,3.22
2022-12-08T02:10:25.006Z,3.00
2022-12-08T02:12:55.292Z,3.40
2022-12-08T02:15:33.789Z,3.25
2022-12-08T02:18:13.805Z,3.95
2022-12-08T02:20:44.019Z,4.30
2022-12-08T02:23:24.097Z,4.78
2022-12-08T02:25:57.484Z,5.30
2022-12-08T02:28:43.058Z,5.40
2022-12-08T02:31:13.619Z,4.97
2022-12-08T02:33:41.242Z,6.20
2022-12-08T02:36:16.395Z,6.05
2022-12-08T02:39:09.961Z,6.45
2022-12-08T02:42:03.825Z,5.90
2022-12-08T02:44:34.213Z,6.25
2022-12-08T02:47:04.880Z,5.70
2022-12-08T02:49:33.074Z,5.82
2022-12-08T02:52:29.709Z,5.80
2022-12-08T02:55:02.278Z,4.75
2022-12-08T02:57:32.808Z,5.45
2022-12-08T03:00:07.026Z,4.90
2022-12-08T03:02:44.298Z,4.38
2022-12-08T03:05:22.945Z,4.40
2022-12-08T03:07:55.994Z,3.50
2022-12-08T03:10:30.834Z,4.00
2022-12-08T03:13:07.947Z,3.90
2022-12-08T03:15:37.688Z,3.00
2022-12-08T03:18:06.332Z,2.70
2022-12-08T03:20:34.871Z,2.95
2022-12-08T03:23:03.910Z,2.38
2022-12-08T03:25:32.720Z,1.92
2022-12-08T03:28:00.664Z,2.47
2022-12-08T03:30:29.766Z,2.10
2022-12-08T03:32:59.749Z,1.90
2022-12-08T03:35:28.697Z,2.20
2022-12-08T03:38:10.606Z,2.15
2022-12-08T03:40:38.539Z,1.67
2022-12-08T03:43:05.852Z,1.67
2022-12-08T03:45:32.881Z,1.38
2022-12-08T03:48:00.599Z,1.05
2022-12-08T03:50:28.177Z,1.38
2022-12-08T03:52:55.916Z,1.25
2022-12-08T03:55:23.219Z,1.10
2022-12-08T03:57:50.740Z,1.00
2022-12-08T04:00:18.390Z,1.08
2022-12-08T04:02:45.822Z,1.00
2022-12-08T04:05:13.002Z,0.90
2022-12-08T04:07:40.185Z,1.40
2022-12-08T04:10:07.971Z,1.10
2022-12-08T04:12:38.691Z,0.98
2022-12-08T04:15:06.173Z,1.20
2022-12-08T04:17:33.579Z,1.10
2022-12-08T04:20:00.915Z,1.30
2022-12-08T04:22:28.794Z,1.30
2022-12-08T04:24:56.275Z,1.00
2022-12-08T04:27:23.712Z,1.08
2022-12-08T04:29:52.692Z,1.27
2022-12-08T04:32:20.062Z,1.27
2022-12-08T04:34:47.830Z,1.20
2022-12-08T04:37:14.939Z,1.30
2022-12-08T04:39:42.066Z,2.10
2022-12-08T04:42:09.418Z,1.80
2022-12-08T04:44:36.611Z,2.00
2022-12-08T04:47:06.729Z,2.00
2022-12-08T04:49:33.953Z,2.30
2022-12-08T04:52:01.033Z,3.35
2022-12-08T04:54:31.634Z,3.17
2022-12-08T04:56:59.092Z,2.83
2022-12-08T04:59:26.527Z,2.30
2022-12-08T05:01:56.822Z,2.60
2022-12-08T05:04:29.175Z,2.10
2022-12-08T05:06:56.682Z,2.40
2022-12-08T05:09:23.949Z,1.92
2022-12-08T05:11:51.113Z,2.10
2022-12-08T05:14:19.780Z,2.00
2022-12-08T05:16:47.893Z,2.08
2022-12-08T05:19:16.530Z,1.98
2022-12-08T05:21:44.342Z,1.15
2022-12-08T05:24:11.921Z,1.75
2022-12-08T05:26:38.997Z,1.10
2022-12-08T05:29:07.017Z,1.00
2022-12-08T05:31:36.715Z,1.20
2022-12-08T05:34:03.932Z,1.10
2022-12-08T05:36:31.285Z,1.00
2022-12-08T05:38:58.925Z,1.10
2022-12-08T05:41:26.492Z,1.00
2022-12-08T05:43:56.731Z,0.80
2022-12-08T05:46:24.105Z,0.68
2022-12-08T05:48:53.610Z,0.88
2022-12-08T05:51:22.158Z,1.17
2022-12-08T05:53:50.518Z,0.77
2022-12-08T05:56:48.731Z,0.80
2022-12-08T05:59:22.257Z,1.10
2022-12-08T06:01:49.683Z,1.10
2022-12-08T06:04:17.118Z,0.80
2022-12-08T06:06:44.721Z,1.13
2022-12-08T06:09:13.079Z,0.80
2022-12-08T06:11:40.398Z,1.05
2022-12-08T06:14:10.837Z,1.00
2022-12-08T06:16:38.607Z,2.70
2022-12-08T06:19:06.478Z,1.40
2022-12-08T06:21:33.689Z,0.95
2022-12-08T06:24:03.664Z,1.23
2022-12-08T06:26:30.818Z,1.10
2022-12-08T06:29:00.586Z,1.00
2022-12-08T06:31:28.451Z,1.00
2022-12-08T06:33:56.871Z,0.88
2022-12-08T06:36:25.878Z,1.30
2022-12-08T06:38:56.490Z,1.50
2022-12-08T06:41:23.603Z,1.27
2022-12-08T06:43:51.077Z,1.42
2022-12-08T06:46:20.121Z,1.00
2022-12-08T06:48:48.230Z,1.08
2022-12-08T06:51:18.004Z,1.50
2022-12-08T06:53:45.525Z,1.42
2022-12-08T06:56:15.698Z,1.48
2022-12-08T06:58:46.056Z,1.50
2022-12-08T07:01:17.906Z,1.42
2022-12-08T07:03:46.336Z,1.30
2022-12-08T07:06:18.745Z,1.80
2022-12-08T07:08:45.814Z,1.80
2022-12-08T07:11:16.699Z,1.77
2022-12-08T07:13:48.717Z,1.77
2022-12-08T07:16:18.382Z,2.10
2022-12-08T07:18:45.633Z,2.55
2022-12-08T07:21:15.438Z,2.55
2022-12-08T07:23:43.291Z,2.58
2022-12-08T07:26:15.591Z,2.42
2022-12-08T07:28:43.629Z,2.55
2022-12-08T07:31:18.624Z,1.90
2022-12-08T07:33:45.958Z,1.80
2022-12-08T07:36:13.896Z,2.13
2022-12-08T07:38:41.446Z,2.00
2022-12-08T07:41:12.606Z,1.85
2022-12-08T07:43:41.852Z,1.90
2022-12-08T07:46:12.055Z,2.00
2022-12-08T07:48:43.916Z,2.17
2022-12-08T07:51:13.891Z,2.00
2022-12-08T07:53:42.832Z,1.80
2022-12-08T07:56:12.177Z,1.40
2022-12-08T07:58:39.855Z,1.40
2022-12-08T08:01:07.805Z,1.45
2022-12-08T08:03:37.932Z,1.30
2022-12-08T08:06:07.639Z,1.40
2022-12-08T08:08:34.795Z,1.23
2022-12-08T08:11:08.958Z,1.40
2022-12-08T08:13:41.153Z,0.90
2022-12-08T08:16:09.566Z,1.27
2022-12-08T08:18:37.900Z,1.25
2022-12-08T08:21:43.310Z,1.27
2022-12-08T08:23:54.916Z,1.02
2022-12-08T08:26:26.021Z,1.42
2022-12-08T08:28:56.678Z,1.20
2022-12-08T08:31:27.687Z,1.23
2022-12-08T08:33:55.874Z,1.20
2022-12-08T08:36:31.199Z,1.27
2022-12-08T08:38:58.821Z,1.42
2022-12-08T08:41:26.420Z,1.27
2022-12-08T08:43:56.796Z,1.10
2022-12-08T08:46:24.367Z,1.35
2022-12-08T08:49:00.551Z,1.40
2022-12-08T08:51:30.175Z,1.20
2022-12-08T08:53:57.932Z,1.10
2022-12-08T08:56:25.575Z,1.40
2022-12-08T08:58:56.150Z,0.93
2022-12-08T09:01:30.716Z,1.10
2022-12-08T09:03:59.109Z,1.20
2022-12-08T09:06:28.430Z,1.10
2022-12-08T09:08:55.930Z,1.25
2022-12-08T09:11:33.082Z,1.02
2022-12-08T09:14:03.225Z,0.88
2022-12-08T09:16:34.158Z,1.10
2022-12-08T09:19:08.202Z,0.90
2022-12-08T09:21:36.192Z,0.90
2022-12-08T09:24:11.746Z,1.00
2022-12-08T09:26:40.582Z,0.90
2022-12-08T09:29:09.720Z,1.02
2022-12-08T09:31:36.979Z,1.10
2022-12-08T09:34:05.084Z,1.25
2022-12-08T09:36:32.538Z,1.10
2022-12-08T09:39:01.127Z,1.20
2022-12-08T09:41:48.313Z,1.08
2022-12-08T09:44:34.859Z,0.70
2022-12-08T09:47:04.639Z,0.90
2022-12-08T09:49:40.312Z,0.77
2022-12-08T09:52:17.180Z,0.90
2022-12-08T09:54:44.723Z,0.93
2022-12-08T09:57:17.770Z,0.98
2022-12-08T09:59:48.614Z,1.05
2022-12-08T10:02:26.821Z,1.00
2022-12-08T10:04:58.540Z,0.98
2022-12-08T10:07:31.117Z,1.10
2022-12-08T10:10:16.563Z,1.17
2022-12-08T10:12:46.736Z,0.90
2022-12-08T10:15:14.172Z,0.80
2022-12-08T10:17:49.279Z,1.17
2022-12-08T10:20:28.714Z,0.95
2022-12-08T10:23:07.776Z,1.10
2022-12-08T10:25:40.626Z,1.08
2022-12-08T10:28:09.889Z,1.30
2022-12-08T10:30:37.623Z,1.20
2022-12-08T10:33:05.089Z,1.13
2022-12-08T10:35:49.174Z,1.30
2022-12-08T10:38:20.669Z,1.30
2022-12-08T10:40:49.766Z,1.27
2022-12-08T10:43:19.478Z,1.30
2022-12-08T10:45:49.766Z,0.80
2022-12-08T10:48:22.090Z,0.68
2022-12-08T10:50:59.665Z,1.00
2022-12-08T10:53:31.092Z,0.80
2022-12-08T10:56:04.166Z,0.80
2022-12-08T10:58:31.478Z,1.15
2022-12-08T11:01:00.861Z,0.90
2022-12-08T11:03:33.978Z,0.75
2022-12-08T11:06:07.266Z,0.80
2022-12-08T11:08:47.152Z,1.10
2022-12-08T11:11:15.285Z,1.08
2022-12-08T11:13:43.172Z,0.90
2022-12-08T11:16:12.751Z,0.63
2022-12-08T11:18:46.832Z,0.90
2022-12-08T11:21:23.865Z,0.88
2022-12-08T11:23:54.114Z,0.80
2022-12-08T11:26:29.260Z,0.90
2022-12-08T11:28:57.303Z,0.85
2022-12-08T11:31:41.114Z,1.20
2022-12-08T11:36:37.949Z,1.30
2022-12-08T11:39:08.655Z,1.50
2022-12-08T11:41:40.286Z,1.42
2022-12-08T11:44:14.001Z,1.95
2022-12-08T11:49:13.255Z,1.63
2022-12-08T11:51:40.670Z,1.50
2022-12-08T11:54:12.085Z,1.33
2022-12-08T11:56:41.937Z,0.88
2022-12-08T11:59:32.813Z,1.05
2022-12-08T12:02:03.587Z,0.80
2022-12-08T12:04:43.411Z,0.75
2022-12-08T12:07:25.850Z,0.90
2022-12-08T12:10:00.931Z,0.63
2022-12-08T12:12:40.700Z,0.70
2022-12-08T12:15:26.363Z,0.70
2022-12-08T12:18:05.085Z,0.60
2022-12-08T12:20:32.094Z,0.60
2022-12-08T12:23:08.564Z,1.00
2022-12-08T12:25:37.100Z,1.00
2022-12-08T12:28:06.268Z,0.90
2022-12-08T12:30:51.208Z,1.10
2022-12-08T12:33:19.583Z,1.58
2022-12-08T12:35:50.329Z,1.52
2022-12-08T12:38:47.173Z,1.48
2022-12-08T12:41:16.944Z,1.50
2022-12-08T12:44:06.151Z,2.13
2022-12-08T12:46:49.133Z,1.60
2022-12-08T12:49:35.493Z,1.80
2022-12-08T12:52:07.876Z,1.90
2022-12-08T12:54:35.020Z,2.17
2022-12-08T12:57:14.203Z,2.10
2022-12-08T12:59:50.109Z,2.00
2022-12-08T13:02:23.418Z,2.00
2022-12-08T13:05:11.055Z,1.85
2022-12-08T13:07:58.471Z,1.95
2022-12-08T13:10:26.286Z,1.80
2022-12-08T13:13:18.586Z,1.45
2022-12-08T13:15:56.847Z,1.55
2022-12-08T13:18:29.565Z,1.55
2022-12-08T13:21:06.287Z,1.53
2022-12-08T13:23:39.660Z,1.30
2022-12-08T13:29:07.070Z,1.40
2022-12-08T13:31:49.813Z,1.30
2022-12-08T13:37:08.194Z,1.90
2022-12-08T13:39:38.446Z,1.95
2022-12-08T13:42:26.161Z,2.17
2022-12-08T13:45:21.393Z,2.70
2022-12-08T13:48:20.576Z,2.53
2022-12-08T13:55:01.830Z,3.00
2022-12-08T13:57:06.788Z,2.60
2022-12-08T13:59:46.654Z,2.90
2022-12-08T14:02:32.066Z,2.78
2022-12-08T14:05:18.135Z,2.70
2022-12-08T14:07:52.714Z,2.70
2022-12-08T14:10:27.091Z,2.90
2022-12-08T14:13:04.435Z,2.67
2022-12-08T14:15:38.860Z,2.65
2022-12-08T14:18:17.005Z,2.55
2022-12-08T14:21:19.053Z,2.47
2022-12-08T14:23:36.519Z,2.72
2022-12-08T14:26:08.274Z,2.80
2022-12-08T14:28:58.170Z,2.58
2022-12-08T14:31:29.366Z,3.13
2022-12-08T14:34:03.661Z,2.53
2022-12-08T14:36:35.804Z,2.67
2022-12-08T14:39:03.166Z,2.80
2022-12-08T14:41:33.503Z,2.83
2022-12-08T14:44:02.197Z,2.80
2022-12-08T14:46:30.021Z,2.40
2022-12-08T14:49:03.002Z,2.72
2022-12-08T14:51:35.216Z,3.33
2022-12-08T14:54:17.029Z,3.53
2022-12-08T14:56:53.288Z,3.47
2022-12-08T14:59:26.439Z,3.45
2022-12-08T15:02:34.642Z,3.45
2022-12-08T15:05:04.549Z,3.53
2022-12-08T15:07:38.015Z,3.30
2022-12-08T15:10:26.471Z,3.60
2022-12-08T15:13:13.615Z,3.45
2022-12-08T15:15:57.091Z,3.78
2022-12-08T15:18:43.740Z,3.80
2022-12-08T15:21:17.854Z,3.60
2022-12-08T15:23:46.065Z,3.97
2022-12-08T15:26:27.241Z,4.28
2022-12-08T15:28:57.426Z,4.20
2022-12-08T15:31:25.262Z,3.88
2022-12-08T15:33:56.362Z,4.00
2022-12-08T15:39:35.410Z,4.20
2022-12-08T15:42:08.889Z,4.47
2022-12-08T15:44:37.731Z,4.45
2022-12-08T15:47:07.702Z,4.47
2022-12-08T15:49:35.670Z,4.57
2022-12-08T15:52:11.312Z,4.57
2022-12-08T15:54:39.460Z,4.68
2022-12-08T15:57:53.015Z,4.75
2022-12-08T15:59:58.888Z,4.38
2022-12-08T16:02:34.332Z,4.53
2022-12-08T16:05:40.966Z,4.60
2022-12-08T16:08:07.857Z,3.90
2022-12-08T16:11:29.289Z,5.40
2022-12-08T16:14:00.257Z,4.30
2022-12-08T16:16:35.536Z,4.82
2022-12-08T16:19:05.766Z,4.18
2022-12-08T16:22:12.152Z,4.30
2022-12-08T16:24:22.959Z,3.83
2022-12-08T16:29:40.137Z,4.07
2022-12-08T16:32:07.945Z,3.72
2022-12-08T16:34:35.131Z,3.42
2022-12-08T16:37:02.223Z,3.70
2022-12-08T16:39:45.471Z,4.70
2022-12-08T16:42:36.038Z,4.90
2022-12-08T16:45:07.092Z,5.30
2022-12-08T16:47:35.248Z,5.68
2022-12-08T16:50:08.040Z,5.30
2022-12-08T16:52:37.883Z,4.68
2022-12-08T16:55:10.830Z,4.47
2022-12-08T16:57:38.402Z,4.20
2022-12-08T17:00:07.750Z,4.65
2022-12-08T17:02:39.045Z,4.03
2022-12-08T17:05:09.378Z,3.92
2022-12-08T17:07:37.029Z,3.60
2022-12-08T17:10:06.333Z,4.55
2022-12-08T17:12:35.943Z,3.92
2022-12-08T17:15:05.271Z,4.47
2022-12-08T17:17:35.991Z,4.30
2022-12-08T17:20:07.042Z,3.95
2022-12-08T17:22:35.300Z,4.28
2022-12-08T17:25:03.797Z,4.82
2022-12-08T17:27:31.096Z,4.65
2022-12-08T17:29:58.855Z,5.80
2022-12-08T17:32:28.400Z,6.35
2022-12-08T17:34:57.942Z,5.90
2022-12-08T17:37:29.553Z,5.97
2022-12-08T17:39:59.602Z,5.43
2022-12-08T17:42:30.109Z,5.53
2022-12-08T17:44:57.674Z,6.00
2022-12-08T17:47:25.113Z,6.03
2022-12-08T17:49:56.111Z,5.28
2022-12-08T17:52:33.146Z,6.00
2022-12-08T17:55:00.400Z,5.78
2022-12-08T17:57:36.808Z,6.07
2022-12-08T18:00:05.716Z,5.95
2022-12-08T18:02:35.697Z,7.05
2022-12-08T18:05:05.660Z,6.75
2022-12-08T18:07:35.049Z,7.40
2022-12-08T18:10:02.507Z,6.88
2022-12-08T18:12:30.051Z,7.78
2022-12-08T18:14:58.423Z,7.63
2022-12-08T18:17:26.033Z,8.90
2022-12-08T18:19:56.395Z,7.45
2022-12-08T18:22:27.009Z,7.85
2022-12-08T18:24:55.053Z,7.93
2022-12-08T18:27:23.711Z,7.80
2022-12-08T18:29:54.144Z,7.97
2022-12-08T18:32:24.058Z,7.78
2022-12-08T18:34:57.021Z,7.30
2022-12-08T18:37:24.496Z,7.05
2022-12-08T18:39:57.570Z,7.35
2022-12-08T18:42:28.085Z,7.57
2022-12-08T18:45:06.801Z,7.88
2022-12-08T18:47:37.136Z,7.75
2022-12-08T18:50:07.534Z,9.05
2022-12-08T18:52:35.216Z,9.13
2022-12-08T18:55:07.316Z,8.50
2022-12-08T18:57:35.685Z,8.02
2022-12-08T19:00:03.675Z,9.52
2022-12-08T19:02:35.367Z,8.55
2022-12-08T19:05:06.250Z,9.02
2022-12-08T19:07:43.218Z,8.75
2022-12-08T19:10:11.706Z,8.45
2022-12-08T19:12:45.379Z,8.00
2022-12-08T19:15:16.939Z,8.93
2022-12-08T19:17:44.895Z,8.88
2022-12-08T19:20:16.180Z,9.57
2022-12-08T19:22:47.174Z,10.82
2022-12-08T19:25:18.151Z,10.60
2022-12-08T19:27:48.782Z,10.48
2022-12-08T19:30:19.979Z,10.35
2022-12-08T19:32:47.399Z,10.35
2022-12-08T19:35:19.072Z,11.38
2022-12-08T19:37:54.306Z,11.02
2022-12-08T19:40:42.974Z,10.50
2022-12-08T19:43:57.554Z,10.10
2022-12-08T19:46:27.983Z,10.30
2022-12-08T19:48:55.979Z,10.95
2022-12-08T19:51:24.815Z,10.18
2022-12-08T19:53:56.319Z,10.63
2022-12-08T19:56:23.762Z,13.32
2022-12-08T19:58:59.105Z,12.82
2022-12-08T20:01:27.067Z,12.40
2022-12-08T20:03:56.696Z,12.77
2022-12-08T20:06:24.182Z,12.13
2022-12-08T20:09:26.343Z,12.98
2022-12-08T20:12:04.469Z,13.35
2022-12-08T20:14:32.047Z,12.57
2022-12-08T20:16:59.434Z,13.50
2022-12-08T20:19:36.172Z,13.60
2022-12-08T20:22:11.437Z,13.77
2022-12-08T20:24:39.044Z,13.07
2022-12-08T20:27:06.674Z,14.07
2022-12-08T20:29:34.140Z,13.90
2022-12-08T20:32:01.878Z,14.02
2022-12-08T20:34:40.413Z,14.10
2022-12-08T20:37:08.797Z,14.20
2022-12-08T20:39:36.083Z,14.18
2022-12-08T20:42:06.966Z,14.38
2022-12-08T20:44:34.907Z,14.93
2022-12-08T20:47:02.724Z,14.80
2022-12-08T20:49:35.272Z,13.68
2022-12-08T20:52:06.099Z,13.75
2022-12-08T20:54:42.287Z,13.77
2022-12-08T20:57:14.219Z,13.38
2022-12-08T20:59:54.730Z,14.60
2022-12-08T21:02:22.068Z,13.13
2022-12-08T21:04:50.023Z,14.20
2022-12-08T21:07:20.761Z,13.38
2022-12-08T21:09:50.843Z,14.00
2022-12-08T21:12:18.786Z,14.43
2022-12-08T21:14:53.423Z,13.90
2022-12-08T21:17:20.964Z,13.60
2022-12-08T21:19:48.232Z,14.55
2022-12-08T21:22:15.803Z,14.88
2022-12-08T21:24:43.045Z,14.82
2022-12-08T21:27:11.050Z,15.32
2022-12-08T21:29:38.221Z,16.15
2022-12-08T21:32:05.634Z,21.73
2022-12-08T21:34:35.273Z,17.15
2022-12-08T21:39:44.444Z,15.35
2022-12-08T21:42:34.223Z,16.33
2022-12-08T21:45:02.104Z,16.05
2022-12-08T21:47:29.906Z,16.00
2022-12-08T21:49:57.754Z,14.32
2022-12-08T21:52:24.856Z,14.68
2022-12-08T21:54:55.856Z,15.43
2022-12-08T21:57:23.348Z,15.18
2022-12-08T21:59:53.450Z,14.40
2022-12-08T22:02:22.614Z,14.80
2022-12-08T22:04:53.378Z,14.68
2022-12-08T22:07:22.155Z,14.75
2022-12-08T22:09:49.377Z,14.98
2022-12-08T22:12:17.028Z,13.93
2022-12-08T22:14:44.747Z,14.65
2022-12-08T22:17:12.454Z,15.57
2022-12-08T22:19:40.482Z,15.90
2022-12-08T22:22:07.959Z,16.63
2022-12-08T22:24:35.145Z,16.63
2022-12-08T22:27:06.773Z,19.10
2022-12-08T22:29:34.349Z,17.08
2022-12-08T22:32:02.092Z,20.00
2022-12-08T22:34:29.423Z,19.85
2022-12-08T22:36:57.767Z,18.83
2022-12-08T22:39:24.829Z,16.05
2022-12-08T22:41:55.082Z,15.93
2022-12-08T22:44:25.677Z,16.35
2022-12-08T22:46:56.784Z,15.90
2022-12-08T22:49:25.510Z,15.68
2022-12-08T22:51:56.525Z,16.63
2022-12-08T22:54:23.974Z,15.93
2022-12-08T22:56:53.131Z,16.20
2022-12-08T22:59:20.247Z,16.88
2022-12-08T23:01:47.483Z,14.73
2022-12-08T23:04:18.598Z,16.83
2022-12-08T23:06:49.410Z,16.27
2022-12-08T23:09:17.045Z,15.98
2022-12-08T23:11:44.817Z,15.52
2022-12-08T23:14:12.055Z,16.33
2022-12-08T23:16:39.877Z,15.68
2022-12-08T23:19:07.285Z,17.02
2022-12-08T23:21:35.041Z,15.40
2022-12-08T23:24:03.080Z,15.70
2022-12-08T23:26:32.146Z,15.68
2022-12-08T23:29:00.381Z,16.27
2022-12-08T23:31:27.756Z,16.85
2022-12-08T23:33:55.612Z,15.27
2022-12-08T23:36:26.289Z,15.85
2022-12-08T23:38:56.698Z,15.82
2022-12-08T23:41:24.068Z,16.75
2022-12-08T23:43:55.393Z,16.00
2022-12-08T23:46:26.177Z,17.48
2022-12-08T23:48:56.799Z,15.77
2022-12-08T23:51:24.108Z,16.63
2022-12-08T23:53:54.173Z,16.63
2022-12-08T23:56:24.360Z,16.52
2022-12-08T23:58:54.359Z,15.50
